createdAt,value
2023-01-20T00:00:04.247Z,29.50
2023-01-20T00:02:32.057Z,34.10
2023-01-20T00:05:07.749Z,32.70
2023-01-20T00:07:54.455Z,33.40
2023-01-20T00:12:50.725Z,32.10
2023-01-20T00:15:20.058Z,33.80
2023-01-20T00:17:48.775Z,31.00
2023-01-20T00:20:18.860Z,30.30
2023-01-20T00:22:47.178Z,29.60
2023-01-20T00:25:32.834Z,34.50
2023-01-20T00:28:00.472Z,32.90
2023-01-20T00:30:38.028Z,29.00
2023-01-20T00:33:06.372Z,32.00
2023-01-20T00:35:37.382Z,37.70
2023-01-20T00:38:05.610Z,39.10
2023-01-20T00:40:34.278Z,36.90
2023-01-20T00:43:01.758Z,35.60
2023-01-20T00:45:31.421Z,36.50
2023-01-20T00:48:08.882Z,39.70
2023-01-20T00:50:37.098Z,36.90
2023-01-20T00:53:04.310Z,38.00
2023-01-20T00:55:32.204Z,36.90
2023-01-20T00:58:00.087Z,37.00
2023-01-20T01:00:27.540Z,43.20
2023-01-20T01:02:55.499Z,37.50
2023-01-20T01:05:23.747Z,42.90
2023-01-20T01:07:51.530Z,37.40
2023-01-20T01:10:24.908Z,43.50
2023-01-20T01:12:52.603Z,43.60
2023-01-20T01:15:19.715Z,40.00
2023-01-20T01:17:47.033Z,39.80
2023-01-20T01:20:14.939Z,34.60
2023-01-20T01:22:41.986Z,38.10
2023-01-20T01:25:09.966Z,32.80
2023-01-20T01:27:37.327Z,37.40
2023-01-20T01:30:05.801Z,35.00
2023-01-20T01:32:33.978Z,31.50
2023-01-20T01:35:02.145Z,25.70
2023-01-20T01:37:29.835Z,35.60
2023-01-20T01:39:57.361Z,36.80
2023-01-20T01:42:27.216Z,34.80
2023-01-20T01:45:27.364Z,35.70
2023-01-20T01:48:03.742Z,40.30
2023-01-20T01:50:53.031Z,37.30
2023-01-20T01:53:23.097Z,38.20
2023-01-20T01:55:58.489Z,38.10
2023-01-20T01:58:36.002Z,33.70
2023-01-20T02:04:08.572Z,33.10
2023-01-20T02:06:40.970Z,32.70
2023-01-20T02:09:09.459Z,34.30
2023-01-20T02:11:50.479Z,39.10
2023-01-20T02:14:23.652Z,34.70
2023-01-20T02:17:25.278Z,31.50
2023-01-20T02:20:25.538Z,34.20
2023-01-20T02:23:18.460Z,37.90
2023-01-20T02:26:03.317Z,36.60
2023-01-20T02:28:58.752Z,35.30
2023-01-20T02:32:08.921Z,35.00
2023-01-20T02:34:44.836Z,42.00
2023-01-20T02:37:27.978Z,40.80
2023-01-20T02:40:01.114Z,42.30
2023-01-20T02:42:38.485Z,43.50
2023-01-20T02:45:17.898Z,37.80
2023-01-20T02:48:18.811Z,39.30
2023-01-20T02:51:12.212Z,46.80
2023-01-20T02:53:57.362Z,38.20
2023-01-20T02:56:30.184Z,34.20
2023-01-20T02:59:02.717Z,34.80
2023-01-20T03:01:44.610Z,38.70
2023-01-20T03:04:18.768Z,44.00
2023-01-20T03:06:54.042Z,42.10
2023-01-20T03:09:42.083Z,47.60
2023-01-20T03:12:25.020Z,44.80
2023-01-20T03:14:55.529Z,48.40
2023-01-20T03:17:24.650Z,47.50
2023-01-20T03:19:52.174Z,50.30
2023-01-20T03:22:19.389Z,50.90
2023-01-20T03:24:49.843Z,51.10
2023-01-20T03:27:17.388Z,53.00
2023-01-20T03:29:45.020Z,49.30
2023-01-20T03:32:13.200Z,53.10
2023-01-20T03:34:44.453Z,52.10
2023-01-20T03:37:13.533Z,53.00
2023-01-20T03:39:40.757Z,54.10
2023-01-20T03:42:20.110Z,52.40
2023-01-20T03:45:24.680Z,51.90
2023-01-20T03:48:00.895Z,48.30
2023-01-20T03:53:38.537Z,50.10
2023-01-20T03:56:26.400Z,50.20
2023-01-20T03:58:57.968Z,56.90
2023-01-20T04:01:31.325Z,50.80
2023-01-20T04:04:00.291Z,49.80
2023-01-20T04:06:35.618Z,47.40
2023-01-20T04:09:11.179Z,50.10
2023-01-20T04:11:39.246Z,54.90
2023-01-20T04:14:10.049Z,45.70
2023-01-20T04:16:40.293Z,46.90
2023-01-20T04:19:08.467Z,50.00
2023-01-20T04:22:04.298Z,49.00
2023-01-20T04:25:01.423Z,49.60
2023-01-20T04:27:30.465Z,47.40
2023-01-20T04:29:57.594Z,45.60
2023-01-20T04:32:24.635Z,48.50
2023-01-20T04:34:53.137Z,45.00
2023-01-20T04:37:20.239Z,46.90
2023-01-20T04:39:48.137Z,48.60
2023-01-20T04:42:15.221Z,44.80
2023-01-20T04:44:42.621Z,50.10
2023-01-20T04:47:09.647Z,45.00
2023-01-20T04:49:37.430Z,50.00
2023-01-20T04:52:04.795Z,41.30
2023-01-20T04:54:32.022Z,39.70
2023-01-20T04:56:59.195Z,41.10
2023-01-20T04:59:26.175Z,41.20
2023-01-20T05:01:53.740Z,41.80
2023-01-20T05:04:21.694Z,38.10
2023-01-20T05:06:48.708Z,40.70
2023-01-20T05:09:17.625Z,37.60
2023-01-20T05:11:45.228Z,35.90
2023-01-20T05:14:13.072Z,38.10
2023-01-20T05:16:40.461Z,37.50
2023-01-20T05:19:07.984Z,34.00
2023-01-20T05:21:35.195Z,38.40
2023-01-20T05:24:02.910Z,34.40
2023-01-20T05:26:30.397Z,36.60
2023-01-20T05:28:57.654Z,36.00
2023-01-20T05:31:25.984Z,39.20
2023-01-20T05:33:53.071Z,35.50
2023-01-20T05:36:20.534Z,37.40
2023-01-20T05:38:47.686Z,35.20
2023-01-20T05:41:15.322Z,34.00
2023-01-20T05:43:42.546Z,38.10
2023-01-20T05:46:12.402Z,37.20
2023-01-20T05:48:39.660Z,33.10
2023-01-20T05:51:07.148Z,36.70
2023-01-20T05:53:34.404Z,35.70
2023-01-20T05:56:03.281Z,34.90
2023-01-20T05:58:32.014Z,38.80
2023-01-20T06:01:10.470Z,42.50
2023-01-20T06:03:38.262Z,41.30
2023-01-20T06:06:08.686Z,39.40
2023-01-20T06:08:36.788Z,41.10
2023-01-20T06:11:04.141Z,40.40
2023-01-20T06:13:31.308Z,42.00
2023-01-20T06:15:58.579Z,40.90
2023-01-20T06:18:25.542Z,37.70
2023-01-20T06:20:56.779Z,42.50
2023-01-20T06:23:23.963Z,39.00
2023-01-20T06:26:08.630Z,38.60
2023-01-20T06:28:36.413Z,39.80
2023-01-20T06:31:06.635Z,43.30
2023-01-20T06:33:34.396Z,43.50
2023-01-20T06:36:02.982Z,46.10
2023-01-20T06:38:32.417Z,44.40
2023-01-20T06:41:06.964Z,44.90
2023-01-20T06:43:36.518Z,46.10
2023-01-20T06:46:06.425Z,47.40
2023-01-20T06:48:37.650Z,50.00
2023-01-20T06:51:16.682Z,48.90
2023-01-20T06:53:44.860Z,49.30
2023-01-20T06:56:17.240Z,49.10
2023-01-20T06:58:45.286Z,44.80
2023-01-20T07:01:16.353Z,42.40
2023-01-20T07:03:45.485Z,43.30
2023-01-20T07:06:34.724Z,44.70
2023-01-20T07:09:03.272Z,41.20
2023-01-20T07:11:31.735Z,44.70
2023-01-20T07:13:59.651Z,42.80
2023-01-20T07:16:27.073Z,43.70
2023-01-20T07:18:55.346Z,47.00
2023-01-20T07:21:26.033Z,42.70
2023-01-20T07:23:53.940Z,43.20
2023-01-20T07:26:23.367Z,45.50
2023-01-20T07:28:50.637Z,38.50
2023-01-20T07:31:25.072Z,45.10
2023-01-20T07:33:52.769Z,41.40
2023-01-20T07:36:21.940Z,40.50
2023-01-20T07:38:50.851Z,40.00
2023-01-20T07:41:20.220Z,39.50
2023-01-20T07:43:50.217Z,43.90
2023-01-20T07:46:17.828Z,44.70
2023-01-20T07:48:45.818Z,43.30
2023-01-20T07:51:14.953Z,39.40
2023-01-20T07:53:47.887Z,39.50
2023-01-20T07:56:19.604Z,40.70
2023-01-20T07:58:51.013Z,41.80
2023-01-20T08:01:24.380Z,38.50
2023-01-20T08:03:53.625Z,39.90
2023-01-20T08:06:23.821Z,42.20
2023-01-20T08:08:52.754Z,38.50
2023-01-20T08:11:25.670Z,41.40
2023-01-20T08:13:54.299Z,44.40
2023-01-20T08:16:21.907Z,40.20
2023-01-20T08:18:49.919Z,41.90
2023-01-20T08:21:25.575Z,43.30
2023-01-20T08:23:55.928Z,48.70
2023-01-20T08:26:25.327Z,41.90
2023-01-20T08:28:53.332Z,50.10
2023-01-20T08:31:24.263Z,48.80
2023-01-20T08:34:02.725Z,46.00
2023-01-20T08:36:36.555Z,54.10
2023-01-20T08:39:08.365Z,49.80
2023-01-20T08:41:39.298Z,47.10
2023-01-20T08:44:08.462Z,48.60
2023-01-20T08:46:41.517Z,49.80
2023-01-20T08:49:15.277Z,45.00
2023-01-20T08:51:45.442Z,43.40
2023-01-20T08:54:12.767Z,46.20
2023-01-20T08:56:41.568Z,43.00
2023-01-20T08:59:09.179Z,46.30
2023-01-20T09:01:38.319Z,42.40
2023-01-20T09:04:07.786Z,41.40
2023-01-20T09:06:45.779Z,46.20
2023-01-20T09:09:14.957Z,42.50
2023-01-20T09:11:57.528Z,42.60
2023-01-20T09:14:26.408Z,43.70
2023-01-20T09:16:53.934Z,44.40
2023-01-20T09:19:20.962Z,50.30
2023-01-20T09:21:48.538Z,51.70
2023-01-20T09:24:15.967Z,48.60
2023-01-20T09:26:43.206Z,54.00
2023-01-20T09:29:22.668Z,52.80
2023-01-20T09:32:04.760Z,55.30
2023-01-20T09:34:40.271Z,64.90
2023-01-20T09:37:26.212Z,60.50
2023-01-20T09:40:13.372Z,64.70
2023-01-20T09:43:25.044Z,69.90
2023-01-20T09:46:17.611Z,73.60
2023-01-20T09:49:40.076Z,75.50
2023-01-20T09:52:44.686Z,77.50
2023-01-20T09:55:26.822Z,69.70
2023-01-20T09:58:36.122Z,73.90
2023-01-20T10:01:50.441Z,81.10
2023-01-20T10:04:54.466Z,75.30
2023-01-20T10:07:51.705Z,69.00
2023-01-20T10:10:57.523Z,71.10
2023-01-20T10:14:17.709Z,67.60
2023-01-20T10:17:19.118Z,63.90
2023-01-20T10:20:06.692Z,58.10
2023-01-20T10:23:22.644Z,58.70
2023-01-20T10:26:11.196Z,59.30
2023-01-20T10:28:43.937Z,49.50
2023-01-20T10:31:21.687Z,43.90
2023-01-20T10:33:50.406Z,44.60
2023-01-20T10:37:00.960Z,49.20
2023-01-20T10:39:51.148Z,39.00
2023-01-20T10:43:08.009Z,40.40
2023-01-20T10:46:14.459Z,37.00
2023-01-20T10:49:04.732Z,36.70
2023-01-20T10:52:05.105Z,40.80
2023-01-20T10:55:14.908Z,44.70
2023-01-20T10:57:43.410Z,38.50
2023-01-20T11:00:31.893Z,36.50
2023-01-20T11:03:07.110Z,36.70
2023-01-20T11:05:39.048Z,41.30
2023-01-20T11:08:27.797Z,38.50
2023-01-20T11:11:00.510Z,46.20
2023-01-20T11:13:28.353Z,38.80
2023-01-20T11:16:01.775Z,41.80
2023-01-20T11:18:32.569Z,45.70
2023-01-20T11:21:15.393Z,46.10
2023-01-20T11:23:50.053Z,36.50
2023-01-20T11:26:28.366Z,42.70
2023-01-20T11:29:12.428Z,37.00
2023-01-20T11:31:39.764Z,42.00
2023-01-20T11:34:22.338Z,52.50
2023-01-20T11:36:51.306Z,49.30
2023-01-20T11:40:19.638Z,46.70
2023-01-20T11:44:10.417Z,50.40
2023-01-20T11:51:21.634Z,48.10
2023-01-20T11:59:18.065Z,43.00
2023-01-20T12:03:07.967Z,37.40
2023-01-20T12:07:10.423Z,27.80
2023-01-20T12:11:00.959Z,32.30
2023-01-20T12:15:07.470Z,32.90
2023-01-20T12:19:02.519Z,34.60
2023-01-20T12:22:51.951Z,33.10
2023-01-20T12:26:43.247Z,38.90
2023-01-20T12:54:59.663Z,47.00
2023-01-20T12:58:57.954Z,46.40
2023-01-20T13:02:31.833Z,43.20
2023-01-20T13:06:14.748Z,39.40
2023-01-20T13:10:05.755Z,39.10
2023-01-20T13:13:57.221Z,46.30
2023-01-20T13:17:29.425Z,46.60
2023-01-20T13:21:18.941Z,44.60
2023-01-20T13:25:03.973Z,45.60
2023-01-20T13:28:36.549Z,39.40
2023-01-20T13:31:39.158Z,47.70
2023-01-20T13:34:26.415Z,38.70
2023-01-20T13:37:13.860Z,40.30
2023-01-20T13:40:09.701Z,46.40
2023-01-20T13:43:39.023Z,41.90
2023-01-20T13:50:47.829Z,45.70
2023-01-20T13:54:35.469Z,46.10
2023-01-20T13:58:23.341Z,43.40
2023-01-20T14:02:10.882Z,42.50
2023-01-20T14:05:39.011Z,45.00
2023-01-20T14:09:08.500Z,49.50
2023-01-20T14:12:04.047Z,42.70
2023-01-20T14:19:07.315Z,50.60
2023-01-20T14:22:34.375Z,38.20
2023-01-20T14:26:02.560Z,45.00
2023-01-20T14:29:49.878Z,50.40
2023-01-20T14:32:51.839Z,53.90
2023-01-20T14:36:26.339Z,43.60
2023-01-20T14:40:14.561Z,43.10
2023-01-20T14:43:29.034Z,39.90
2023-01-20T14:46:43.524Z,35.30
2023-01-20T14:50:14.855Z,30.70
2023-01-20T14:54:02.469Z,33.80
2023-01-20T14:57:59.986Z,31.90
2023-01-20T15:01:50.597Z,28.00
2023-01-20T15:05:39.566Z,36.10
2023-01-20T15:09:29.203Z,32.70
2023-01-20T15:17:06.901Z,39.70
2023-01-20T15:21:16.697Z,33.10
2023-01-20T15:25:00.009Z,26.60
2023-01-20T15:28:48.193Z,35.10
2023-01-20T15:32:35.758Z,25.20
2023-01-20T15:36:23.497Z,31.30
2023-01-20T15:40:14.972Z,42.20
2023-01-20T15:44:06.461Z,76.50
2023-01-20T15:47:47.666Z,42.60
2023-01-20T15:50:44.799Z,65.90
2023-01-20T15:54:14.241Z,74.40
2023-01-20T16:01:12.688Z,70.00
2023-01-20T16:04:39.976Z,71.30
2023-01-20T16:08:08.980Z,77.90
2023-01-20T16:11:21.901Z,55.30
2023-01-20T16:14:49.664Z,52.10
2023-01-20T16:17:24.300Z,52.50
2023-01-20T16:20:16.015Z,51.80
2023-01-20T16:23:43.297Z,59.10
2023-01-20T16:27:20.764Z,58.60
2023-01-20T16:29:50.786Z,54.00
2023-01-20T16:33:18.413Z,68.10
2023-01-20T16:36:49.075Z,67.90
2023-01-20T16:40:06.035Z,60.40
2023-01-20T16:43:16.733Z,58.30
2023-01-20T16:46:43.751Z,48.70
2023-01-20T16:50:14.493Z,44.20
2023-01-20T16:53:41.598Z,58.30
2023-01-20T16:57:28.821Z,56.10
2023-01-20T17:01:06.319Z,47.70
2023-01-20T17:04:55.258Z,52.30
2023-01-20T17:08:22.935Z,48.70
2023-01-20T17:12:06.594Z,54.60
2023-01-20T17:15:55.080Z,50.30
2023-01-20T17:19:42.359Z,44.90
2023-01-20T17:22:58.878Z,49.90
2023-01-20T17:30:13.699Z,51.30
2023-01-20T17:33:42.930Z,46.10
2023-01-20T17:37:34.535Z,54.80
2023-01-20T17:41:03.883Z,59.40
2023-01-20T17:44:54.904Z,37.30
2023-01-20T17:48:22.260Z,41.90
2023-01-20T17:52:09.428Z,45.50
2023-01-20T17:56:10.949Z,40.40
2023-01-20T17:59:43.729Z,40.80
2023-01-20T18:03:30.967Z,42.80
2023-01-20T18:07:16.681Z,32.70
2023-01-20T18:10:07.596Z,29.60
2023-01-20T18:13:16.374Z,30.90
2023-01-20T18:16:45.644Z,38.60
2023-01-20T18:20:13.741Z,27.10
2023-01-20T18:23:41.885Z,31.20
2023-01-20T18:26:12.644Z,30.10
2023-01-20T18:28:42.155Z,24.70
2023-01-20T18:31:18.224Z,34.90
2023-01-20T18:33:49.080Z,27.80
2023-01-20T18:36:24.402Z,30.40
2023-01-20T18:38:54.171Z,29.70
2023-01-20T18:41:25.764Z,38.30
2023-01-20T18:43:53.547Z,26.50
2023-01-20T18:46:21.563Z,36.90
2023-01-20T18:48:58.245Z,23.70
2023-01-20T18:51:31.230Z,25.90
2023-01-20T18:54:06.483Z,24.70
2023-01-20T18:56:37.848Z,20.80
2023-01-20T18:59:08.301Z,20.90
2023-01-20T19:01:57.084Z,160.30
2023-01-20T19:04:25.021Z,47.30
2023-01-20T19:06:54.513Z,29.50
2023-01-20T19:09:23.378Z,28.30
2023-01-20T19:11:51.712Z,24.70
2023-01-20T19:14:48.662Z,21.20
2023-01-20T19:18:16.617Z,20.90
2023-01-20T19:21:28.051Z,24.40
2023-01-20T19:31:49.671Z,19.50
2023-01-20T19:34:52.662Z,22.10
2023-01-20T19:37:21.087Z,26.50
2023-01-20T19:39:50.230Z,18.20
2023-01-20T19:42:18.471Z,21.60
2023-01-20T19:44:48.488Z,18.40
2023-01-20T19:47:16.823Z,20.20
2023-01-20T19:49:45.253Z,22.20
2023-01-20T19:52:49.024Z,17.10
2023-01-20T19:56:00.381Z,16.10
2023-01-20T19:58:50.104Z,15.80
2023-01-20T20:02:10.558Z,21.40
2023-01-20T20:05:11.286Z,21.90
2023-01-20T20:07:53.244Z,18.80
2023-01-20T20:10:37.009Z,24.10
2023-01-20T20:13:25.705Z,18.70
2023-01-20T20:16:35.781Z,16.70
2023-01-20T20:19:45.743Z,15.50
2023-01-20T20:22:40.758Z,20.50
2023-01-20T20:26:08.376Z,15.40
2023-01-20T20:29:53.697Z,19.70
2023-01-20T20:33:30.775Z,17.30
2023-01-20T20:37:01.600Z,14.10
2023-01-20T20:40:35.689Z,14.00
2023-01-20T20:44:23.372Z,16.20
2023-01-20T20:47:54.499Z,12.20
2023-01-20T20:51:22.500Z,11.10
2023-01-20T20:58:04.131Z,12.10
2023-01-20T21:01:15.397Z,12.10
2023-01-20T21:04:47.214Z,9.00
2023-01-20T21:08:38.716Z,8.90
2023-01-20T21:12:28.644Z,22.00
2023-01-20T21:16:16.119Z,10.80
2023-01-20T21:20:05.789Z,11.50
2023-01-20T21:27:26.015Z,10.40
2023-01-20T21:31:14.331Z,10.10
2023-01-20T21:35:02.336Z,8.70
2023-01-20T21:38:50.208Z,9.30
2023-01-20T21:42:37.791Z,9.20
2023-01-20T21:46:26.320Z,11.00
2023-01-20T21:50:12.331Z,8.30
2023-01-20T21:53:59.772Z,10.20
2023-01-20T21:57:57.690Z,7.70
2023-01-20T22:01:48.360Z,7.90
2023-01-20T22:05:35.925Z,7.20
2023-01-20T22:09:22.731Z,8.00
2023-01-20T22:12:11.819Z,7.20
2023-01-20T22:15:11.365Z,8.10
2023-01-20T22:18:18.988Z,6.80
2023-01-20T22:21:14.385Z,7.00
2023-01-20T22:24:30.242Z,6.60
2023-01-20T22:27:35.027Z,6.90
2023-01-20T22:31:22.311Z,7.00
2023-01-20T22:34:37.844Z,6.90
2023-01-20T22:37:36.057Z,6.60
2023-01-20T22:41:02.948Z,7.20
2023-01-20T22:44:14.201Z,6.40
2023-01-20T22:46:50.551Z,7.60
2023-01-20T22:50:02.878Z,6.40
2023-01-20T22:52:57.232Z,7.40
2023-01-20T22:56:01.128Z,6.10
2023-01-20T22:59:10.428Z,6.50
2023-01-20T23:02:42.024Z,5.70
2023-01-20T23:06:12.918Z,6.90
2023-01-20T23:10:09.392Z,5.70
2023-01-20T23:13:59.132Z,5.90
2023-01-20T23:17:46.912Z,6.70
2023-01-20T23:25:16.928Z,5.50
2023-01-20T23:28:24.395Z,5.00
2023-01-20T23:34:05.440Z,5.50
2023-01-20T23:39:29.680Z,5.00
2023-01-20T23:42:28.407Z,4.30
2023-01-20T23:47:45.338Z,5.70
2023-01-20T23:51:12.352Z,5.30
2023-01-20T23:54:32.690Z,5.80
2023-01-20T23:57:42.443Z,5.60
